Gaza, Egypt

11:01 EET 31. Říjen 2014 (GMT +0200)
Shoval | Change Station
CLOSE
Current Station
Osobní povětrnostní stanice
Location: Shoval,
Nadmořská výška: 673 ft
Poblíž povětrnostní stanice

Výška 673 ft 31.41 °N, 34.74 °E | Updated 1 minute ago

Scattered Clouds
Polojasno
68.6 °F
Pocit jako 68.6 °F
S
3.0
Vítr proměnlivý Vítr od JJZ
Gusts 3.0 mil/h

Dnes
Vysoké -- | Nízké -- °F
--% Možnost srážek
Včera
Vysoké -- | Nízké -- °F
Precip. -- inčů
5:57 AM 4:54 PM
První čtvrť, 53% visible
Tlak 29.92 inčů
Viditelnost 6.2 mílí
Zataženo Nemnoho 3000 ft
Polojasno 3500 ft
Rosný bod 63 °F
Vlhkost 82%
Dešťové srážky 0.00 inčů
Sněhová pokrývka Není k dispozici
UV záření 6 ze 12
Pyl Není k dispozici
Kvalita ovzduší Není k dispozici
Flu Activity Není k dispozici
METAR LLBG 310850Z 17009KT 9999 FEW030 SCT035 22/17 Q1013 BECMG 23018KT 5000 TSRA FEW020CB BKN030 RMK RERA

More Conditions Fewer Conditions

Tlak 29.92 inčů
Viditelnost 6.2 mílí
Zataženo Nemnoho 3000 ft
Polojasno 3500 ft
Rosný bod 63 °F
Vlhkost 82%
Dešťové srážky 0.00 inčů
Sněhová pokrývka Není k dispozici
UV záření 6 ze 12
Pyl Není k dispozici
Kvalita ovzduší Není k dispozici
Flu Activity Není k dispozici
METAR LLBG 310850Z 17009KT 9999 FEW030 SCT035 22/17 Q1013 BECMG 23018KT 5000 TSRA FEW020CB BKN030 RMK RERA

More Conditions Fewer Conditions

10-Day Weather Forecast

Almanac

Astronomie

Oct. 31, 2014 Východ Západ
Skutečný čas
Občanský soumrak
Námořní soumrak
Astronomický soumrak
Měsíc
Délka denního světla
Délka dne
Tomorrow will be .
, % of the Moon is Illuminated

Dnešní extrémy

Nejvyšší hodnoty ve státě Nejnižší hodnoty ve státě

Community

WunderPhotos

Upload Photos

1,766,573 snímků staženo!

WunderBlogs® & News

Nearby

Kvalita ovzduší

  Kvalita ovzduší Index kvality ovzduší Polutant
Not available.

Výška sněhu

Station Hloubka Nadmořská výška

Seizmická činnost

Město Distance Mag. Čas & datum
Minimální zobrazený rozsah je 2.5.

Pobřežní teplota vody

Lokalita Teplota

Poblíž povětrnostní stanice